Time;durP1;ratioP1;P1;durP2;ratioP2;P2;SDS_P1;SDS_P2;PMS_P1;PMS_P2;Temp;Humidity;BMP_temperature;BMP_pressure;BME280_temperature;BME280_humidity;BME280_pressure;Samples;Min_cycle;Max_cycle;Signal;HPM_P1;HPM_P2
2022/08/01 00:01:34;;;;;;;;;;;25.00;99.90;;;;;;5074632;28;20199;-59
2022/08/01 00:04:00;;;;;;;;;;;24.80;99.90;;;;;;5079093;28;19978;-58
2022/08/01 00:06:25;;;;;;;;;;;24.90;99.90;;;;;;5077389;28;20511;-60
2022/08/01 00:08:51;;;;;;;;;;;24.80;99.90;;;;;;5077968;28;19916;-59
2022/08/01 00:11:17;;;;;;;;;;;24.60;99.90;;;;;;5075538;28;19912;-60
2022/08/01 00:13:42;;;;;;;;;;;24.60;99.90;;;;;;5071483;28;19966;-58
2022/08/01 00:16:09;;;;;;;;;;;24.70;99.90;;;;;;5076743;28;20277;-56
2022/08/01 00:18:35;;;;;;;;;;;24.70;99.90;;;;;;5056504;28;19912;-59
2022/08/01 00:21:01;;;;;;;;;;;24.80;99.90;;;;;;5077604;28;19934;-60
2022/08/01 00:23:27;;;;;;;;;;;24.90;99.90;;;;;;5083546;28;19973;-60
2022/08/01 00:25:52;;;;;;;;;;;24.80;99.90;;;;;;5078237;28;19916;-59
2022/08/01 00:28:18;;;;;;;;;;;24.80;99.90;;;;;;5078988;28;20033;-60
2022/08/01 00:30:43;;;;;;;;;;;24.80;99.90;;;;;;5077783;28;19946;-60
2022/08/01 00:33:09;;;;;;;;;;;24.80;99.90;;;;;;5076854;28;20011;-61
2022/08/01 00:35:35;;;;;;;;;;;24.90;99.90;;;;;;5088957;28;19932;-60
2022/08/01 00:38:00;;;;;;;;;;;24.80;99.90;;;;;;5083392;28;20049;-61
2022/08/01 00:40:26;;;;;;;;;;;24.90;99.90;;;;;;5079111;28;19931;-60
2022/08/01 00:42:51;;;;;;;;;;;25.00;99.90;;;;;;5078230;28;20281;-61
2022/08/01 00:45:17;;;;;;;;;;;25.00;99.90;;;;;;5075042;28;19923;-63
2022/08/01 00:47:42;;;;;;;;;;;25.10;99.90;;;;;;5077806;28;19912;-64
2022/08/01 00:50:09;;;;;;;;;;;25.10;99.90;;;;;;5073909;28;19931;-62
2022/08/01 00:52:34;;;;;;;;;;;25.00;99.90;;;;;;5075558;28;20383;-61
2022/08/01 00:55:00;;;;;;;;;;;24.90;99.90;;;;;;5073514;28;20002;-61
2022/08/01 00:57:26;;;;;;;;;;;24.80;99.90;;;;;;5074716;28;19916;-61
2022/08/01 00:59:52;;;;;;;;;;;24.80;99.90;;;;;;5073636;28;20114;-63
2022/08/01 01:02:20;;;;;;;;;;;24.80;99.90;;;;;;5076523;28;19912;-62
2022/08/01 01:04:46;;;;;;;;;;;24.90;99.90;;;;;;5087517;28;19925;-62
2022/08/01 01:07:14;;;;;;;;;;;24.80;99.90;;;;;;5093008;28;19915;-62
2022/08/01 01:09:42;;;;;;;;;;;24.80;99.90;;;;;;5076904;28;20282;-60
2022/08/01 01:12:22;;;;;;;;;;;24.70;99.90;;;;;;5078438;28;19923;-60
2022/08/01 01:14:50;;;;;;;;;;;24.70;99.90;;;;;;5077958;28;19974;-57
2022/08/01 01:17:17;;;;;;;;;;;24.70;99.90;;;;;;5080043;28;20377;-62
2022/08/01 01:19:47;;;;;;;;;;;24.80;99.90;;;;;;5078635;28;19923;-62
2022/08/01 01:22:32;;;;;;;;;;;24.90;99.90;;;;;;5079282;28;19920;-61
2022/08/01 01:25:16;;;;;;;;;;;25.00;99.90;;;;;;5076335;28;19960;-61
2022/08/01 01:27:44;;;;;;;;;;;25.10;99.90;;;;;;5076455;28;19966;-61
2022/08/01 01:30:10;;;;;;;;;;;25.20;99.90;;;;;;5076694;28;19920;-62
2022/08/01 01:32:38;;;;;;;;;;;25.30;99.90;;;;;;5076559;28;19916;-60
2022/08/01 01:35:09;;;;;;;;;;;25.20;99.90;;;;;;5076641;28;19924;-61
2022/08/01 01:37:38;;;;;;;;;;;25.20;99.90;;;;;;5093058;28;20013;-60
2022/08/01 01:40:04;;;;;;;;;;;25.20;99.90;;;;;;5080897;28;19970;-61
2022/08/01 01:42:30;;;;;;;;;;;25.20;99.90;;;;;;5105904;28;19912;-59
2022/08/01 01:44:56;;;;;;;;;;;25.20;99.90;;;;;;5081324;28;19998;-61
2022/08/01 01:47:22;;;;;;;;;;;25.20;99.90;;;;;;5075711;28;19940;-59
2022/08/01 01:49:49;;;;;;;;;;;25.20;99.90;;;;;;5080473;28;19916;-59
2022/08/01 01:52:16;;;;;;;;;;;25.30;99.90;;;;;;5078095;28;21331;-59
2022/08/01 01:54:44;;;;;;;;;;;25.30;99.90;;;;;;5083324;28;19924;-61
2022/08/01 01:57:11;;;;;;;;;;;25.30;99.90;;;;;;5077808;28;19924;-60
2022/08/01 01:59:38;;;;;;;;;;;25.30;99.90;;;;;;5081091;28;19920;-59
2022/08/01 02:02:05;;;;;;;;;;;25.30;99.90;;;;;;5076780;28;19920;-59
2022/08/01 02:04:32;;;;;;;;;;;25.20;99.90;;;;;;5080167;28;20403;-61
2022/08/01 02:06:58;;;;;;;;;;;25.10;99.90;;;;;;5077430;28;20305;-58
2022/08/01 02:09:26;;;;;;;;;;;25.10;99.90;;;;;;5082622;28;19956;-62
2022/08/01 02:11:52;;;;;;;;;;;25.00;99.90;;;;;;5078905;28;19916;-61
2022/08/01 02:14:19;;;;;;;;;;;24.90;99.90;;;;;;5079235;28;19915;-60
2022/08/01 02:16:47;;;;;;;;;;;24.90;99.90;;;;;;5079655;28;19967;-62
2022/08/01 02:19:14;;;;;;;;;;;24.90;99.90;;;;;;5082080;28;19915;-59
2022/08/01 02:21:51;;;;;;;;;;;25.00;99.90;;;;;;5074505;28;19920;-62
2022/08/01 02:24:36;;;;;;;;;;;25.10;99.90;;;;;;5066643;28;19941;-61
2022/08/01 02:27:06;;;;;;;;;;;25.20;99.90;;;;;;5076928;28;19927;-60
2022/08/01 02:32:44;;;;;;;;;;;25.20;99.90;;;;;;5076023;28;19916;-60
2022/08/01 02:35:12;;;;;;;;;;;25.20;99.90;;;;;;5080779;28;19919;-56
2022/08/01 02:37:38;;;;;;;;;;;25.10;99.90;;;;;;5079279;28;19912;-60
2022/08/01 02:40:05;;;;;;;;;;;25.10;99.90;;;;;;5079278;28;19924;-61
2022/08/01 02:42:31;;;;;;;;;;;25.10;99.90;;;;;;5058277;28;19913;-60
2022/08/01 02:44:57;;;;;;;;;;;25.10;99.90;;;;;;5080528;28;20010;-63
2022/08/01 02:47:25;;;;;;;;;;;25.00;99.90;;;;;;5078183;28;20322;-63
2022/08/01 02:49:52;;;;;;;;;;;25.00;99.90;;;;;;5076066;28;20053;-60
2022/08/01 02:52:18;;;;;;;;;;;25.00;99.90;;;;;;5075800;28;19919;-57
2022/08/01 02:54:45;;;;;;;;;;;25.00;99.90;;;;;;5077816;28;19916;-60
2022/08/01 02:57:12;;;;;;;;;;;24.90;99.90;;;;;;5079753;28;19912;-60
2022/08/01 02:59:38;;;;;;;;;;;24.70;99.90;;;;;;5077872;28;19957;-61
2022/08/01 03:02:05;;;;;;;;;;;24.50;99.90;;;;;;5076462;28;19919;-60
2022/08/01 03:04:33;;;;;;;;;;;24.50;99.90;;;;;;5079328;28;19923;-60
2022/08/01 03:06:59;;;;;;;;;;;24.40;99.90;;;;;;5076992;28;19927;-62
2022/08/01 03:09:26;;;;;;;;;;;24.50;99.90;;;;;;5077742;28;20510;-61
2022/08/01 03:11:52;;;;;;;;;;;24.60;99.90;;;;;;5085204;28;19927;-62
2022/08/01 03:14:20;;;;;;;;;;;24.80;99.90;;;;;;5072464;28;19913;-60
2022/08/01 03:16:46;;;;;;;;;;;24.90;99.90;;;;;;5076343;28;19916;-59
2022/08/01 03:19:12;;;;;;;;;;;25.00;99.90;;;;;;5075919;28;19962;-62
2022/08/01 03:21:38;;;;;;;;;;;25.00;99.90;;;;;;5079091;28;19958;-61
2022/08/01 03:24:05;;;;;;;;;;;25.00;99.90;;;;;;5077697;28;19927;-60
2022/08/01 03:26:31;;;;;;;;;;;25.00;99.90;;;;;;5079975;28;20233;-61
2022/08/01 03:29:01;;;;;;;;;;;25.00;99.90;;;;;;5077558;28;19922;-60
2022/08/01 03:31:27;;;;;;;;;;;25.00;99.90;;;;;;5076633;28;20316;-59
2022/08/01 03:33:53;;;;;;;;;;;24.90;99.90;;;;;;5079678;28;19928;-61
2022/08/01 03:36:23;;;;;;;;;;;24.90;99.90;;;;;;5079385;28;20022;-58
2022/08/01 03:38:50;;;;;;;;;;;24.80;99.90;;;;;;5079462;28;20269;-64
2022/08/01 03:41:17;;;;;;;;;;;24.80;99.90;;;;;;5077815;28;20071;-61
2022/08/01 03:43:54;;;;;;;;;;;24.70;99.90;;;;;;5072572;28;19944;-60
2022/08/01 03:46:21;;;;;;;;;;;24.80;99.90;;;;;;5078957;28;20011;-61
2022/08/01 03:48:48;;;;;;;;;;;24.70;99.90;;;;;;5079885;28;19923;-60
2022/08/01 03:51:15;;;;;;;;;;;24.70;99.90;;;;;;5079261;28;20217;-62
2022/08/01 03:53:42;;;;;;;;;;;24.80;99.90;;;;;;5076520;28;19931;-60
2022/08/01 03:56:08;;;;;;;;;;;24.70;99.90;;;;;;5075633;28;20371;-61
2022/08/01 03:58:34;;;;;;;;;;;24.80;99.90;;;;;;5061067;28;19920;-61
2022/08/01 04:01:00;;;;;;;;;;;24.80;99.90;;;;;;5074030;28;19916;-61
2022/08/01 04:03:26;;;;;;;;;;;24.80;99.90;;;;;;5077224;28;19923;-60
2022/08/01 04:05:51;;;;;;;;;;;24.70;99.90;;;;;;5077115;28;19996;-75
2022/08/01 04:08:17;;;;;;;;;;;24.70;99.90;;;;;;5078893;28;19927;-74
2022/08/01 04:10:43;;;;;;;;;;;24.60;99.90;;;;;;5076886;28;20297;-74
2022/08/01 04:13:08;;;;;;;;;;;24.50;99.90;;;;;;5062499;28;19969;-73
2022/08/01 04:15:34;;;;;;;;;;;24.50;99.90;;;;;;5089155;28;19952;-73
2022/08/01 04:18:00;;;;;;;;;;;24.40;99.90;;;;;;5078135;28;19999;-72
2022/08/01 04:20:25;;;;;;;;;;;24.50;99.90;;;;;;5081217;28;20308;-73
2022/08/01 04:22:51;;;;;;;;;;;24.60;99.90;;;;;;5060293;28;19964;-75
2022/08/01 04:25:24;;;;;;;;;;;24.60;99.90;;;;;;5078111;28;19977;-74
2022/08/01 04:27:51;;;;;;;;;;;24.60;99.90;;;;;;5079549;28;20358;-74
2022/08/01 04:30:19;;;;;;;;;;;24.60;99.90;;;;;;5077377;28;19958;-71
2022/08/01 04:32:46;;;;;;;;;;;24.50;99.90;;;;;;5075991;28;19978;-72
2022/08/01 04:35:13;;;;;;;;;;;24.50;99.90;;;;;;5076774;28;19911;-72
2022/08/01 04:37:40;;;;;;;;;;;24.50;99.90;;;;;;5079422;28;19916;-73
2022/08/01 04:40:06;;;;;;;;;;;24.50;99.90;;;;;;5080344;28;19919;-72
2022/08/01 04:42:35;;;;;;;;;;;24.50;99.90;;;;;;5078181;28;19935;-72
2022/08/01 04:45:00;;;;;;;;;;;24.40;99.90;;;;;;5075203;28;19924;-71
2022/08/01 04:47:26;;;;;;;;;;;24.40;99.90;;;;;;5075361;28;19923;-72
2022/08/01 04:49:53;;;;;;;;;;;24.30;99.90;;;;;;5078004;28;19920;-70
2022/08/01 04:52:19;;;;;;;;;;;24.40;99.90;;;;;;5075435;28;20365;-71
2022/08/01 04:54:46;;;;;;;;;;;24.40;99.90;;;;;;5074174;28;20004;-71
2022/08/01 04:57:11;;;;;;;;;;;24.40;99.90;;;;;;5077372;28;20277;-74
2022/08/01 04:59:41;;;;;;;;;;;24.40;99.90;;;;;;5079758;28;19921;-72
2022/08/01 05:02:28;;;;;;;;;;;24.40;99.90;;;;;;5078546;28;20285;-72
2022/08/01 05:04:57;;;;;;;;;;;24.40;99.90;;;;;;5075009;28;19919;-73
2022/08/01 05:07:23;;;;;;;;;;;24.40;99.90;;;;;;5080632;28;19931;-71
2022/08/01 05:09:48;;;;;;;;;;;24.50;99.90;;;;;;5085880;28;19912;-71
2022/08/01 05:12:14;;;;;;;;;;;24.50;99.90;;;;;;5087145;28;19916;-74
2022/08/01 05:14:40;;;;;;;;;;;24.60;99.90;;;;;;5093535;28;19912;-73
2022/08/01 05:17:06;;;;;;;;;;;24.80;99.90;;;;;;5072145;28;19958;-75
2022/08/01 05:19:36;;;;;;;;;;;24.80;99.90;;;;;;5091444;28;20468;-75
2022/08/01 05:22:06;;;;;;;;;;;24.80;99.90;;;;;;5118246;28;19979;-74
2022/08/01 05:24:32;;;;;;;;;;;25.00;99.90;;;;;;5117954;28;20353;-76
2022/08/01 05:26:58;;;;;;;;;;;25.10;99.90;;;;;;5102425;28;19916;-75
2022/08/01 05:29:24;;;;;;;;;;;25.30;99.90;;;;;;5074930;28;20050;-76
2022/08/01 05:31:50;;;;;;;;;;;25.30;99.90;;;;;;5059625;28;19908;-75
2022/08/01 05:34:16;;;;;;;;;;;25.40;99.90;;;;;;5094825;28;19915;-76
2022/08/01 05:36:41;;;;;;;;;;;25.40;99.90;;;;;;5094681;28;20319;-75
2022/08/01 05:39:07;;;;;;;;;;;25.40;99.90;;;;;;5105008;28;19908;-75
2022/08/01 05:41:33;;;;;;;;;;;25.50;99.90;;;;;;5076466;28;20337;-75
2022/08/01 05:43:59;;;;;;;;;;;25.50;99.90;;;;;;5093414;28;19916;-75
2022/08/01 05:46:24;;;;;;;;;;;25.50;99.90;;;;;;5091989;28;19930;-76
2022/08/01 05:48:50;;;;;;;;;;;25.60;99.90;;;;;;5089143;28;19913;-76
2022/08/01 05:51:16;;;;;;;;;;;25.60;99.90;;;;;;5101115;28;19912;-77
2022/08/01 05:53:41;;;;;;;;;;;25.60;99.90;;;;;;5115177;28;20351;-75
2022/08/01 05:56:07;;;;;;;;;;;25.70;99.90;;;;;;5098419;28;19912;-76
2022/08/01 05:58:32;;;;;;;;;;;25.80;99.90;;;;;;5103918;28;19959;-76
2022/08/01 06:00:58;;;;;;;;;;;25.90;99.90;;;;;;5097666;28;19939;-75
2022/08/01 06:03:24;;;;;;;;;;;25.90;99.90;;;;;;5103393;28;19912;-75
2022/08/01 06:05:51;;;;;;;;;;;26.00;99.90;;;;;;5095518;28;19916;-75
2022/08/01 06:08:16;;;;;;;;;;;26.10;99.90;;;;;;5077145;28;19909;-74
2022/08/01 06:10:42;;;;;;;;;;;26.10;99.90;;;;;;5095884;28;19923;-75
2022/08/01 06:13:08;;;;;;;;;;;26.20;99.90;;;;;;5091216;28;19944;-76
2022/08/01 06:15:33;;;;;;;;;;;26.20;99.90;;;;;;5103011;28;19915;-76
2022/08/01 06:17:59;;;;;;;;;;;26.20;99.90;;;;;;5101146;28;19912;-75
2022/08/01 06:20:25;;;;;;;;;;;26.30;99.90;;;;;;5076147;28;19961;-75
2022/08/01 06:22:51;;;;;;;;;;;26.30;99.90;;;;;;5109664;28;19947;-75
2022/08/01 06:25:17;;;;;;;;;;;26.40;99.90;;;;;;5115310;28;20392;-75
2022/08/01 06:27:43;;;;;;;;;;;26.50;99.90;;;;;;5118805;28;19939;-75
2022/08/01 06:30:09;;;;;;;;;;;26.60;99.90;;;;;;5118313;28;19931;-75
2022/08/01 06:32:35;;;;;;;;;;;26.70;99.90;;;;;;5119987;28;19969;-75
2022/08/01 06:35:00;;;;;;;;;;;26.80;99.90;;;;;;5092642;28;19912;-75
2022/08/01 06:37:29;;;;;;;;;;;27.00;99.90;;;;;;5114329;28;19927;-75
2022/08/01 06:39:55;;;;;;;;;;;27.10;99.90;;;;;;5111382;28;19919;-75
2022/08/01 06:42:21;;;;;;;;;;;27.20;99.90;;;;;;5117166;28;19920;-75
2022/08/01 06:44:46;;;;;;;;;;;27.30;99.90;;;;;;5106028;28;19924;-74
2022/08/01 06:47:12;;;;;;;;;;;27.30;99.90;;;;;;5108784;28;19943;-75
2022/08/01 06:49:38;;;;;;;;;;;27.40;99.90;;;;;;5104296;28;19911;-77
2022/08/01 06:52:04;;;;;;;;;;;27.50;99.90;;;;;;5083155;28;19920;-76
2022/08/01 06:54:29;;;;;;;;;;;27.60;99.90;;;;;;5123427;28;19915;-74
2022/08/01 06:56:55;;;;;;;;;;;27.50;99.90;;;;;;5105346;28;19909;-75
2022/08/01 06:59:20;;;;;;;;;;;27.70;99.90;;;;;;5100090;28;20337;-73
2022/08/01 07:01:46;;;;;;;;;;;27.80;99.90;;;;;;5085831;28;20006;-75
2022/08/01 07:04:11;;;;;;;;;;;27.90;99.90;;;;;;5098426;28;20361;-76
2022/08/01 07:06:37;;;;;;;;;;;28.00;99.90;;;;;;5114889;28;19908;-75
2022/08/01 07:09:03;;;;;;;;;;;28.10;99.90;;;;;;5102612;28;19924;-75
2022/08/01 07:11:29;;;;;;;;;;;28.20;99.90;;;;;;5091518;28;19912;-74
2022/08/01 07:13:54;;;;;;;;;;;28.20;99.90;;;;;;5101488;28;19978;-74
2022/08/01 07:16:20;;;;;;;;;;;28.40;99.90;;;;;;5075062;28;19919;-75
2022/08/01 07:18:45;;;;;;;;;;;28.50;99.90;;;;;;5090617;28;20002;-73
2022/08/01 07:21:11;;;;;;;;;;;28.60;99.90;;;;;;5090643;28;19912;-73
2022/08/01 07:23:36;;;;;;;;;;;28.70;99.90;;;;;;5074196;28;19923;-72
2022/08/01 07:26:03;;;;;;;;;;;28.90;99.90;;;;;;5074354;28;19916;-73
2022/08/01 07:28:28;;;;;;;;;;;29.00;99.90;;;;;;5091765;28;19920;-74
2022/08/01 07:30:54;;;;;;;;;;;29.00;99.90;;;;;;5103434;28;19915;-70
2022/08/01 07:33:20;;;;;;;;;;;28.80;99.90;;;;;;5098019;28;20331;-73
2022/08/01 07:35:45;;;;;;;;;;;28.60;99.90;;;;;;5097214;28;19912;-72
2022/08/01 07:38:11;;;;;;;;;;;28.50;99.90;;;;;;5091769;28;20299;-75
2022/08/01 07:40:37;;;;;;;;;;;28.50;99.90;;;;;;5102299;28;19915;-73
2022/08/01 07:43:02;;;;;;;;;;;28.60;99.90;;;;;;5079459;28;20325;-72
2022/08/01 07:45:28;;;;;;;;;;;28.60;99.90;;;;;;5093266;28;19963;-72
2022/08/01 07:47:54;;;;;;;;;;;28.50;99.90;;;;;;5092497;28;19944;-73
2022/08/01 07:50:19;;;;;;;;;;;28.40;99.90;;;;;;5091532;28;20288;-74
2022/08/01 07:52:45;;;;;;;;;;;28.40;99.90;;;;;;5094619;28;20166;-72
2022/08/01 07:55:11;;;;;;;;;;;28.40;99.90;;;;;;5096595;28;20006;-72
2022/08/01 07:57:37;;;;;;;;;;;28.40;99.90;;;;;;5096792;28;20322;-71
2022/08/01 08:00:06;;;;;;;;;;;28.50;99.90;;;;;;5091830;28;19924;-71
2022/08/01 08:02:32;;;;;;;;;;;28.60;99.90;;;;;;5112043;28;19908;-75
2022/08/01 08:04:58;;;;;;;;;;;28.60;99.90;;;;;;5105629;28;19923;-73
2022/08/01 08:07:23;;;;;;;;;;;28.60;99.90;;;;;;5105266;28;19939;-71
2022/08/01 08:09:49;;;;;;;;;;;28.60;99.90;;;;;;5090626;28;20397;-75
2022/08/01 08:12:14;;;;;;;;;;;28.70;99.90;;;;;;5076467;28;19970;-75
2022/08/01 08:14:40;;;;;;;;;;;28.60;99.90;;;;;;5072932;28;19908;-73
2022/08/01 08:17:06;;;;;;;;;;;28.60;99.90;;;;;;5100028;28;19912;-72
2022/08/01 08:19:33;;;;;;;;;;;28.60;99.90;;;;;;5098756;28;19912;-71
2022/08/01 08:21:59;;;;;;;;;;;28.70;99.90;;;;;;5091025;28;19916;-73
2022/08/01 08:24:26;;;;;;;;;;;28.70;99.90;;;;;;5091082;28;19958;-72
2022/08/01 08:26:55;;;;;;;;;;;28.70;99.90;;;;;;5090271;28;20328;-72
2022/08/01 08:29:21;;;;;;;;;;;28.60;99.90;;;;;;5099226;28;19951;-73
2022/08/01 08:31:47;;;;;;;;;;;28.60;99.90;;;;;;5085416;28;20356;-71
2022/08/01 08:34:13;;;;;;;;;;;28.40;99.90;;;;;;5093907;28;19922;-72
2022/08/01 08:36:39;;;;;;;;;;;28.40;99.90;;;;;;5106716;28;19912;-73
2022/08/01 08:39:05;;;;;;;;;;;28.40;99.90;;;;;;5102644;28;19922;-74
2022/08/01 08:41:31;;;;;;;;;;;28.40;99.90;;;;;;5096727;28;19970;-76
2022/08/01 08:43:58;;;;;;;;;;;28.50;99.90;;;;;;5100080;28;19958;-64
2022/08/01 08:46:26;;;;;;;;;;;28.40;99.90;;;;;;5110921;28;20086;-65
2022/08/01 08:48:51;;;;;;;;;;;28.30;99.90;;;;;;5088417;28;20023;-63
2022/08/01 08:51:17;;;;;;;;;;;28.30;99.90;;;;;;5090528;28;20109;-64
2022/08/01 08:53:44;;;;;;;;;;;28.30;99.90;;;;;;5091602;28;19916;-62
2022/08/01 08:56:13;;;;;;;;;;;28.40;99.90;;;;;;5090758;28;20277;-63
2022/08/01 08:58:45;;;;;;;;;;;28.50;99.90;;;;;;5098877;28;20007;-63
2022/08/01 09:01:12;;;;;;;;;;;28.70;99.90;;;;;;5092523;28;20396;-66
2022/08/01 09:03:38;;;;;;;;;;;28.80;99.90;;;;;;5092251;28;19931;-63
2022/08/01 09:06:04;;;;;;;;;;;28.70;99.90;;;;;;5090674;28;20380;-62
2022/08/01 09:08:30;;;;;;;;;;;28.70;99.90;;;;;;5097011;28;19936;-62
2022/08/01 09:10:55;;;;;;;;;;;28.60;99.90;;;;;;5112175;28;20296;-64
2022/08/01 09:13:21;;;;;;;;;;;28.50;99.90;;;;;;5088359;28;19955;-62
2022/08/01 09:15:52;;;;;;;;;;;28.60;99.90;;;;;;5103808;28;20426;-62
2022/08/01 09:18:30;;;;;;;;;;;28.70;99.90;;;;;;5091264;28;19912;-60
2022/08/01 09:21:09;;;;;;;;;;;28.60;99.90;;;;;;5111329;28;19915;-63
2022/08/01 09:23:42;;;;;;;;;;;28.60;99.90;;;;;;5106220;28;19962;-65
2022/08/01 09:26:08;;;;;;;;;;;28.70;99.90;;;;;;5084078;28;19923;-61
2022/08/01 09:28:34;;;;;;;;;;;28.80;99.90;;;;;;5081365;28;19955;-61
2022/08/01 09:31:05;;;;;;;;;;;28.90;99.90;;;;;;5095872;28;20138;-61
2022/08/01 09:33:47;;;;;;;;;;;28.80;99.90;;;;;;5089371;28;19963;-62
2022/08/01 09:36:13;;;;;;;;;;;28.90;99.90;;;;;;5089924;28;19912;-61
2022/08/01 09:38:38;;;;;;;;;;;28.80;99.90;;;;;;5087924;28;19914;-61
2022/08/01 09:41:04;;;;;;;;;;;28.60;99.90;;;;;;5101184;28;20295;-63
2022/08/01 09:43:30;;;;;;;;;;;28.70;99.90;;;;;;5097365;28;19916;-62
2022/08/01 09:45:56;;;;;;;;;;;28.50;99.90;;;;;;5089903;28;19920;-62
2022/08/01 09:48:22;;;;;;;;;;;28.40;99.90;;;;;;5110959;28;19926;-61
2022/08/01 09:50:49;;;;;;;;;;;28.40;99.90;;;;;;5108915;28;19908;-61
2022/08/01 09:53:15;;;;;;;;;;;28.30;99.90;;;;;;5081663;28;19919;-61
2022/08/01 09:55:41;;;;;;;;;;;28.20;99.90;;;;;;5110386;28;19912;-62
2022/08/01 09:58:07;;;;;;;;;;;28.20;99.90;;;;;;5090411;28;19912;-63
2022/08/01 10:00:34;;;;;;;;;;;28.30;99.90;;;;;;5091976;28;19923;-62
2022/08/01 10:02:59;;;;;;;;;;;28.40;99.90;;;;;;5092862;28;20014;-61
2022/08/01 10:05:31;;;;;;;;;;;28.30;99.90;;;;;;5093299;28;19951;-60
2022/08/01 10:07:58;;;;;;;;;;;28.30;99.90;;;;;;5092001;28;19995;-61
2022/08/01 10:10:24;;;;;;;;;;;28.40;99.90;;;;;;5096033;28;20377;-62
2022/08/01 10:12:51;;;;;;;;;;;28.50;99.90;;;;;;5113459;28;19907;-61
2022/08/01 10:15:17;;;;;;;;;;;28.50;99.90;;;;;;5102832;28;19915;-61
2022/08/01 10:17:50;;;;;;;;;;;28.50;99.90;;;;;;5071279;28;19916;-61
2022/08/01 10:20:16;;;;;;;;;;;28.40;99.90;;;;;;5103297;28;20268;-59
2022/08/01 10:22:42;;;;;;;;;;;28.30;99.90;;;;;;5092530;28;19967;-60
2022/08/01 10:25:08;;;;;;;;;;;28.30;99.90;;;;;;5099654;28;19969;-63
2022/08/01 10:27:36;;;;;;;;;;;28.40;99.90;;;;;;5095775;28;20315;-62
2022/08/01 10:30:03;;;;;;;;;;;28.40;99.90;;;;;;5093886;28;19908;-61
2022/08/01 10:32:29;;;;;;;;;;;28.40;99.90;;;;;;5092818;28;19948;-62
2022/08/01 10:34:56;;;;;;;;;;;28.50;99.90;;;;;;5094576;28;19973;-61
2022/08/01 10:37:21;;;;;;;;;;;28.30;99.90;;;;;;5089745;28;19920;-61
2022/08/01 10:39:47;;;;;;;;;;;28.30;99.90;;;;;;5105234;28;19991;-61
2022/08/01 10:42:12;;;;;;;;;;;28.30;99.90;;;;;;5113361;28;19912;-61
2022/08/01 10:44:38;;;;;;;;;;;28.40;99.90;;;;;;5111067;28;19916;-61
2022/08/01 10:47:07;;;;;;;;;;;28.20;99.90;;;;;;5113164;28;20138;-58
2022/08/01 10:49:36;;;;;;;;;;;28.00;99.90;;;;;;5108571;28;20305;-61
2022/08/01 10:52:02;;;;;;;;;;;28.00;99.90;;;;;;5077097;28;19919;-62
2022/08/01 10:54:27;;;;;;;;;;;28.00;99.90;;;;;;5092862;28;20356;-63
2022/08/01 10:56:56;;;;;;;;;;;28.00;99.90;;;;;;5092406;28;19920;-57
2022/08/01 10:59:24;;;;;;;;;;;28.00;99.90;;;;;;5103169;28;19911;-59
2022/08/01 11:02:00;;;;;;;;;;;27.90;99.90;;;;;;5105352;28;19918;-60
2022/08/01 11:04:44;;;;;;;;;;;27.70;99.90;;;;;;5109170;28;19927;-60
2022/08/01 11:07:19;;;;;;;;;;;27.70;99.90;;;;;;5101847;28;19920;-61
2022/08/01 11:09:51;;;;;;;;;;;27.80;99.90;;;;;;5091455;28;19912;-60
2022/08/01 11:12:17;;;;;;;;;;;27.90;99.90;;;;;;5083939;28;20361;-61
2022/08/01 11:14:58;;;;;;;;;;;28.00;99.90;;;;;;5102935;28;20006;-62
2022/08/01 11:17:48;;;;;;;;;;;28.10;99.90;;;;;;5097786;28;19912;-59
2022/08/01 11:20:22;;;;;;;;;;;28.00;99.90;;;;;;5074887;28;20361;-61
2022/08/01 11:23:06;;;;;;;;;;;28.00;99.90;;;;;;5098541;28;19916;-63
2022/08/01 11:25:38;;;;;;;;;;;27.80;99.90;;;;;;5074967;28;20389;-60
2022/08/01 11:28:24;;;;;;;;;;;28.00;99.90;;;;;;5099710;28;20047;-61
2022/08/01 11:30:51;;;;;;;;;;;28.00;99.90;;;;;;5091531;28;19918;-62
2022/08/01 11:33:17;;;;;;;;;;;28.10;99.90;;;;;;5090885;28;19912;-59
2022/08/01 11:36:02;;;;;;;;;;;28.20;99.90;;;;;;5103723;28;19998;-60
2022/08/01 11:38:28;;;;;;;;;;;28.20;99.90;;;;;;5096832;28;19911;-59
2022/08/01 11:41:10;;;;;;;;;;;28.20;99.90;;;;;;5099170;28;20323;-58
2022/08/01 11:43:35;;;;;;;;;;;28.20;99.90;;;;;;5096827;28;20292;-60
2022/08/01 11:46:01;;;;;;;;;;;28.30;99.90;;;;;;5102302;28;19924;-61
2022/08/01 11:48:28;;;;;;;;;;;28.30;99.90;;;;;;5090265;28;20007;-60
2022/08/01 11:50:54;;;;;;;;;;;28.30;99.90;;;;;;5092729;28;19913;-60
2022/08/01 11:53:20;;;;;;;;;;;28.30;99.90;;;;;;5103049;28;20011;-59
2022/08/01 11:55:48;;;;;;;;;;;28.50;99.90;;;;;;5095564;28;19982;-62
2022/08/01 11:58:14;;;;;;;;;;;28.60;99.90;;;;;;5091331;28;20014;-63
2022/08/01 12:00:40;;;;;;;;;;;28.80;99.90;;;;;;5102609;28;19912;-61
2022/08/01 12:03:06;;;;;;;;;;;28.70;99.90;;;;;;5090968;28;20022;-60
2022/08/01 12:05:33;;;;;;;;;;;28.80;99.90;;;;;;5101248;28;20369;-60
2022/08/01 12:07:59;;;;;;;;;;;28.90;99.90;;;;;;5097087;28;19908;-60
2022/08/01 12:10:26;;;;;;;;;;;28.80;99.90;;;;;;5091883;28;20431;-61
2022/08/01 12:12:52;;;;;;;;;;;28.90;99.90;;;;;;5087394;28;20421;-61
2022/08/01 12:15:18;;;;;;;;;;;28.90;99.90;;;;;;5091488;28;20010;-61
2022/08/01 12:17:48;;;;;;;;;;;28.70;99.90;;;;;;5099827;28;19912;-62
2022/08/01 12:20:20;;;;;;;;;;;28.70;99.90;;;;;;5092724;28;19919;-61
2022/08/01 12:22:46;;;;;;;;;;;28.60;99.90;;;;;;5093560;28;20372;-60
2022/08/01 12:25:16;;;;;;;;;;;28.70;99.90;;;;;;5088587;28;19924;-61
2022/08/01 12:27:42;;;;;;;;;;;28.50;99.90;;;;;;5105279;28;20335;-61
2022/08/01 12:30:09;;;;;;;;;;;28.40;99.90;;;;;;5097954;28;19965;-61
2022/08/01 12:32:36;;;;;;;;;;;28.70;99.90;;;;;;5090165;28;19912;-63
2022/08/01 12:35:04;;;;;;;;;;;28.90;99.90;;;;;;5098624;28;19911;-61
2022/08/01 12:37:29;;;;;;;;;;;29.00;99.90;;;;;;5069341;28;20342;-61
2022/08/01 12:39:56;;;;;;;;;;;29.20;99.90;;;;;;5103223;28;19934;-67
2022/08/01 12:42:22;;;;;;;;;;;29.30;99.90;;;;;;5097088;28;20272;-67
2022/08/01 12:44:50;;;;;;;;;;;29.10;99.90;;;;;;5096065;28;19917;-67
2022/08/01 12:47:17;;;;;;;;;;;29.30;99.90;;;;;;5092834;28;19912;-66
2022/08/01 12:49:44;;;;;;;;;;;29.10;99.90;;;;;;5094812;28;19916;-67
2022/08/01 12:52:10;;;;;;;;;;;28.80;99.90;;;;;;5089119;28;20349;-68
2022/08/01 12:54:56;;;;;;;;;;;28.80;99.90;;;;;;5095906;28;19939;-69
2022/08/01 12:57:22;;;;;;;;;;;28.80;99.90;;;;;;5078058;28;19916;-68
2022/08/01 12:59:48;;;;;;;;;;;28.80;99.90;;;;;;5093595;28;20388;-67
2022/08/01 13:02:14;;;;;;;;;;;28.80;99.90;;;;;;5094306;28;19983;-68
2022/08/01 13:04:50;;;;;;;;;;;28.70;99.90;;;;;;5094616;28;20307;-66
2022/08/01 13:07:16;;;;;;;;;;;28.80;99.90;;;;;;5085692;28;19911;-66
2022/08/01 13:09:51;;;;;;;;;;;28.90;99.90;;;;;;5096618;28;20011;-67
2022/08/01 13:12:16;;;;;;;;;;;28.90;99.90;;;;;;5088861;28;19912;-66
2022/08/01 13:14:42;;;;;;;;;;;28.90;99.90;;;;;;5090956;28;19962;-66
2022/08/01 13:17:08;;;;;;;;;;;28.90;99.90;;;;;;5087925;28;20276;-65
2022/08/01 13:19:43;;;;;;;;;;;29.00;99.90;;;;;;5098990;28;20011;-65
2022/08/01 13:22:09;;;;;;;;;;;28.80;99.90;;;;;;5086739;28;19951;-66
2022/08/01 13:24:34;;;;;;;;;;;28.90;99.90;;;;;;5092857;28;19989;-64
2022/08/01 13:27:04;;;;;;;;;;;29.00;99.90;;;;;;5089352;28;19928;-67
2022/08/01 13:29:29;;;;;;;;;;;28.90;99.90;;;;;;5099482;28;19939;-65
2022/08/01 13:31:55;;;;;;;;;;;28.90;99.90;;;;;;5090570;28;19971;-64
2022/08/01 13:34:33;;;;;;;;;;;29.10;99.90;;;;;;5095498;28;19919;-63
2022/08/01 13:37:01;;;;;;;;;;;29.30;99.90;;;;;;5094753;28;19956;-65
2022/08/01 13:39:44;;;;;;;;;;;29.50;99.90;;;;;;5106084;28;19907;-63
2022/08/01 13:42:14;;;;;;;;;;;29.50;99.90;;;;;;5094664;28;20014;-64
2022/08/01 13:44:40;;;;;;;;;;;29.60;99.90;;;;;;5099342;28;19919;-64
2022/08/01 13:47:06;;;;;;;;;;;29.70;99.90;;;;;;5094752;28;19908;-66
2022/08/01 13:49:31;;;;;;;;;;;29.60;99.90;;;;;;5092885;28;20316;-63
2022/08/01 13:51:57;;;;;;;;;;;29.60;99.90;;;;;;5101802;28;19913;-65
2022/08/01 13:54:24;;;;;;;;;;;29.70;99.90;;;;;;5092999;28;19920;-65
2022/08/01 13:56:50;;;;;;;;;;;29.70;99.90;;;;;;5100858;28;19916;-64
2022/08/01 13:59:15;;;;;;;;;;;29.70;99.90;;;;;;5092239;28;20384;-64
2022/08/01 14:01:41;;;;;;;;;;;29.80;99.90;;;;;;5097079;28;20383;-66
2022/08/01 14:04:07;;;;;;;;;;;29.90;99.90;;;;;;5096624;28;19916;-65
2022/08/01 14:06:32;;;;;;;;;;;29.90;99.90;;;;;;5097371;28;20006;-63
2022/08/01 14:08:58;;;;;;;;;;;29.90;99.90;;;;;;5095466;28;20419;-65
2022/08/01 14:11:24;;;;;;;;;;;29.90;99.90;;;;;;5094425;28;20003;-64
2022/08/01 14:13:49;;;;;;;;;;;30.00;99.90;;;;;;5087252;28;19913;-65
2022/08/01 14:16:16;;;;;;;;;;;30.00;99.90;;;;;;5079499;28;19995;-64
2022/08/01 14:18:41;;;;;;;;;;;30.00;99.90;;;;;;5092992;28;19912;-65
2022/08/01 14:21:07;;;;;;;;;;;30.00;99.90;;;;;;5096113;28;19911;-64